Time;durP1;ratioP1;P1;durP2;ratioP2;P2;SDS_P1;SDS_P2;PMS_P1;PMS_P2;Temp;Humidity;BMP_temperature;BMP_pressure;BME280_temperature;BME280_humidity;BME280_pressure;Samples;Min_cycle;Max_cycle;Signal;HPM_P1;HPM_P2
2023/06/16 00:01:59;;;;;;;15.38;13.25;;;24.30;66.70;;;;;;4646217;55;21105;-37
2023/06/16 00:07:01;;;;;;;13.57;12.27;;;24.30;66.70;;;;;;4635819;55;21464;-39
2023/06/16 00:12:03;;;;;;;14.35;12.85;;;24.30;66.60;;;;;;4692065;55;21646;-39
2023/06/16 00:17:05;;;;;;;14.27;12.77;;;24.30;66.70;;;;;;4640005;56;21076;-40
2023/06/16 00:22:07;;;;;;;13.15;11.85;;;24.30;66.60;;;;;;4692929;55;21523;-44
2023/06/16 00:27:08;;;;;;;14.02;12.40;;;24.30;66.60;;;;;;4633814;55;21619;-41
2023/06/16 00:32:09;;;;;;;13.32;11.98;;;24.30;66.60;;;;;;4622058;55;21145;-37
2023/06/16 00:37:09;;;;;;;13.77;12.15;;;24.30;66.60;;;;;;4723017;55;21607;-38
2023/06/16 00:42:10;;;;;;;13.90;12.48;;;24.30;66.60;;;;;;4637741;55;21037;-39
2023/06/16 00:47:11;;;;;;;12.90;11.60;;;24.30;66.60;;;;;;4622762;55;21492;-38
2023/06/16 00:52:14;;;;;;;12.90;11.60;;;24.30;66.60;;;;;;4615395;60;21049;-39
2023/06/16 00:57:15;;;;;;;13.23;11.88;;;24.30;66.50;;;;;;4628083;56;21029;-38
2023/06/16 01:02:16;;;;;;;14.10;12.30;;;24.30;66.50;;;;;;4615793;56;21491;-38
2023/06/16 01:08:53;;;;;;;13.45;12.05;;;24.30;66.90;;;;;;4615528;60;21025;-37
2023/06/16 01:14:14;;;;;;;13.43;12.02;;;24.20;66.50;;;;;;4615138;56;21013;-39
2023/06/16 01:19:37;;;;;;;12.48;10.90;;;24.30;66.50;;;;;;4628983;56;21503;-40
2023/06/16 01:24:42;;;;;;;12.70;11.32;;;24.30;66.60;;;;;;4646114;56;21411;-40
2023/06/16 01:29:44;;;;;;;13.62;11.88;;;24.30;66.50;;;;;;4631012;55;21040;-38
2023/06/16 01:34:47;;;;;;;12.90;11.57;;;24.20;66.40;;;;;;4634657;56;21052;-38
2023/06/16 01:39:49;;;;;;;14.05;12.25;;;24.20;66.40;;;;;;4627714;56;21983;-38
2023/06/16 01:44:51;;;;;;;12.43;11.18;;;24.20;66.40;;;;;;4623799;56;21049;-36
2023/06/16 01:49:53;;;;;;;13.60;12.00;;;24.20;66.40;;;;;;4615603;60;21029;-37
2023/06/16 01:54:53;;;;;;;13.15;10.90;;;24.20;66.40;;;;;;4672762;56;21180;-36
2023/06/16 02:00:02;;;;;;;12.40;11.02;;;24.20;66.40;;;;;;4615432;59;21582;-40
2023/06/16 02:05:04;;;;;;;12.65;11.45;;;24.20;66.40;;;;;;4676563;56;21029;-37
2023/06/16 02:10:06;;;;;;;12.55;11.35;;;24.20;66.40;;;;;;4615358;56;21511;-38
2023/06/16 02:15:08;;;;;;;12.65;11.30;;;24.20;66.40;;;;;;4618406;56;21503;-39
2023/06/16 02:20:11;;;;;;;12.75;11.43;;;24.20;66.40;;;;;;4711089;56;21013;-39
2023/06/16 02:25:12;;;;;;;12.00;10.80;;;24.20;66.40;;;;;;4615593;60;21701;-38
2023/06/16 02:30:14;;;;;;;13.15;11.77;;;24.20;66.40;;;;;;4615238;60;21017;-35
2023/06/16 02:35:15;;;;;;;11.90;10.68;;;24.20;66.30;;;;;;4690718;56;21149;-38
2023/06/16 02:40:16;;;;;;;14.75;11.88;;;24.20;66.30;;;;;;4679047;55;21528;-37
2023/06/16 02:45:17;;;;;;;11.95;10.57;;;24.20;66.30;;;;;;4615790;55;21019;-38
2023/06/16 02:50:18;;;;;;;12.37;11.07;;;24.20;66.30;;;;;;4696372;55;21085;-37
2023/06/16 02:55:20;;;;;;;13.82;11.32;;;24.20;66.40;;;;;;4624406;55;21069;-37
2023/06/16 03:00:21;;;;;;;13.77;11.35;;;24.20;66.30;;;;;;4633629;55;21503;-37
2023/06/16 03:05:23;;;;;;;13.48;11.30;;;24.20;66.30;;;;;;4632473;55;21073;-38
2023/06/16 03:10:24;;;;;;;11.88;10.68;;;24.20;66.30;;;;;;4660512;55;22314;-41
2023/06/16 03:15:25;;;;;;;12.25;10.95;;;24.20;66.30;;;;;;4626535;55;21106;-38
2023/06/16 03:20:26;;;;;;;12.15;10.85;;;24.20;66.30;;;;;;4615917;60;21018;-38
2023/06/16 03:25:28;;;;;;;13.20;11.10;;;24.20;66.40;;;;;;4615842;59;21495;-38
2023/06/16 03:30:29;;;;;;;12.90;11.15;;;24.20;66.40;;;;;;4631126;55;21857;-39
2023/06/16 03:35:29;;;;;;;11.98;10.75;;;24.20;66.50;;;;;;4630507;55;21406;-38
2023/06/16 03:40:30;;;;;;;11.82;10.23;;;24.20;66.40;;;;;;4652211;55;21145;-38
2023/06/16 03:45:31;;;;;;;12.25;10.98;;;24.20;66.40;;;;;;4617207;55;21036;-39
2023/06/16 03:50:32;;;;;;;12.07;10.57;;;24.20;66.40;;;;;;4707873;55;21037;-37
2023/06/16 03:55:33;;;;;;;12.07;10.88;;;24.20;66.40;;;;;;4656486;55;21531;-38
2023/06/16 04:00:34;;;;;;;11.45;10.25;;;24.20;66.40;;;;;;4625347;55;21563;-36
2023/06/16 04:05:35;;;;;;;10.93;9.77;;;24.20;66.40;;;;;;4615960;60;21025;-38
2023/06/16 04:10:37;;;;;;;11.02;9.93;;;24.20;66.40;;;;;;4674778;56;21513;-39
2023/06/16 04:15:38;;;;;;;11.02;9.93;;;24.20;66.30;;;;;;4617064;56;21314;-38
2023/06/16 04:20:39;;;;;;;11.00;9.90;;;24.20;66.40;;;;;;4652334;56;21891;-38
2023/06/16 04:25:40;;;;;;;11.50;10.40;;;24.20;66.40;;;;;;4615556;56;21025;-41
2023/06/16 04:30:42;;;;;;;10.40;9.45;;;24.20;66.30;;;;;;4615184;60;22246;-39
2023/06/16 04:35:42;;;;;;;10.73;9.63;;;24.20;66.30;;;;;;4646176;56;21667;-38
2023/06/16 04:40:43;;;;;;;11.10;9.90;;;24.20;66.30;;;;;;4798256;56;21057;-39
2023/06/16 04:45:44;;;;;;;11.00;9.90;;;24.20;65.90;;;;;;4615396;60;21599;-38
2023/06/16 04:50:45;;;;;;;11.05;9.95;;;24.20;66.30;;;;;;4672598;56;21052;-38
2023/06/16 04:55:46;;;;;;;10.68;9.57;;;24.20;66.30;;;;;;4625685;56;21101;-38
2023/06/16 05:00:47;;;;;;;11.10;10.00;;;24.20;66.30;;;;;;4616776;56;21110;-38
2023/06/16 05:05:48;;;;;;;11.05;10.02;;;24.10;66.20;;;;;;4615688;60;21074;-39
2023/06/16 05:10:49;;;;;;;11.35;10.23;;;24.10;66.20;;;;;;4615102;59;21469;-38
2023/06/16 05:15:49;;;;;;;10.73;9.63;;;24.10;66.20;;;;;;4631264;55;21476;-38
2023/06/16 05:20:50;;;;;;;10.48;8.93;;;24.10;66.10;;;;;;4645097;56;21080;-39
2023/06/16 05:25:52;;;;;;;10.98;9.80;;;24.10;66.10;;;;;;4642001;56;21120;-38
2023/06/16 05:30:53;;;;;;;11.07;9.80;;;24.10;66.80;;;;;;4633058;56;21088;-35
2023/06/16 05:35:54;;;;;;;10.90;9.73;;;24.10;66.10;;;;;;4632859;56;21546;-39
2023/06/16 05:40:55;;;;;;;10.65;9.55;;;24.10;66.10;;;;;;4615247;60;21125;-38
2023/06/16 05:45:55;;;;;;;10.75;9.65;;;24.10;66.00;;;;;;4641331;56;21021;-34
2023/06/16 05:50:57;;;;;;;11.65;9.45;;;24.10;66.10;;;;;;4633184;56;21143;-39
2023/06/16 05:55:57;;;;;;;9.93;8.75;;;24.10;66.10;;;;;;4625069;56;21859;-37
2023/06/16 06:00:58;;;;;;;9.98;9.07;;;24.10;66.00;;;;;;4678396;56;21021;-38
2023/06/16 06:06:01;;;;;;;10.40;9.38;;;24.10;66.70;;;;;;4615307;60;21021;-38
2023/06/16 06:11:04;;;;;;;10.55;9.45;;;24.10;66.10;;;;;;4615262;60;21504;-38
2023/06/16 06:16:04;;;;;;;10.43;9.32;;;24.10;66.00;;;;;;4665674;56;22045;-37
2023/06/16 06:21:05;;;;;;;10.60;9.60;;;24.10;66.10;;;;;;4615924;60;21090;-39
2023/06/16 06:26:06;;;;;;;11.27;9.98;;;24.10;66.10;;;;;;4670231;56;21124;-36
2023/06/16 06:31:07;;;;;;;10.75;9.65;;;24.10;66.00;;;;;;4685745;56;21443;-38
2023/06/16 06:36:09;;;;;;;10.40;9.27;;;24.10;66.10;;;;;;4623103;56;21882;-37
2023/06/16 06:41:10;;;;;;;11.52;9.68;;;24.10;66.10;;;;;;4629447;56;21543;-38
2023/06/16 06:46:12;;;;;;;11.30;9.68;;;24.10;66.10;;;;;;4615508;56;21097;-36
2023/06/16 06:51:16;;;;;;;11.70;10.50;;;24.20;66.10;;;;;;4660092;56;21053;-36
2023/06/16 06:56:16;;;;;;;10.85;9.75;;;24.10;66.10;;;;;;4625098;56;21494;-37
2023/06/16 07:01:17;;;;;;;10.95;9.85;;;24.10;66.10;;;;;;4714571;56;21021;-40
2023/06/16 07:06:18;;;;;;;11.90;9.88;;;24.20;66.20;;;;;;4615679;56;21028;-39
2023/06/16 07:11:19;;;;;;;11.65;10.35;;;24.10;66.10;;;;;;4615394;60;21061;-39
2023/06/16 07:16:20;;;;;;;11.43;10.23;;;24.10;66.10;;;;;;4615935;60;21062;-38
2023/06/16 07:21:21;;;;;;;11.20;10.07;;;24.10;66.10;;;;;;4626498;55;21149;-39
2023/06/16 07:26:21;;;;;;;11.95;10.50;;;24.10;66.10;;;;;;4615493;59;21041;-40
2023/06/16 07:31:22;;;;;;;11.30;10.15;;;24.10;66.10;;;;;;4646185;55;21144;-37
2023/06/16 07:36:23;;;;;;;12.07;10.77;;;24.10;66.10;;;;;;4624795;55;21029;-38
2023/06/16 07:41:24;;;;;;;12.32;11.02;;;24.10;66.10;;;;;;4635185;55;21606;-37
2023/06/16 07:46:25;;;;;;;13.23;11.07;;;24.10;66.20;;;;;;4615968;59;21527;-41
2023/06/16 07:51:26;;;;;;;12.40;11.12;;;24.20;66.20;;;;;;4699041;55;21105;-37
2023/06/16 07:56:28;;;;;;;13.48;11.98;;;24.10;66.20;;;;;;4664226;56;21033;-38
2023/06/16 08:01:29;;;;;;;12.82;11.45;;;24.10;66.10;;;;;;4675992;55;21564;-39
2023/06/16 08:06:30;;;;;;;11.82;10.50;;;24.10;66.10;;;;;;4686092;56;21053;-39
2023/06/16 08:11:31;;;;;;;13.95;11.80;;;24.10;66.10;;;;;;4676868;55;21042;-38
2023/06/16 08:16:32;;;;;;;12.35;11.12;;;24.10;66.20;;;;;;4643316;55;21029;-41
2023/06/16 08:21:32;;;;;;;12.77;11.48;;;24.10;66.10;;;;;;4720606;56;21500;-38
2023/06/16 08:26:33;;;;;;;14.05;11.65;;;24.10;66.10;;;;;;4616792;56;21061;-38
2023/06/16 08:31:34;;;;;;;15.07;12.18;;;24.10;66.20;;;;;;4681734;56;21041;-39
2023/06/16 08:36:35;;;;;;;15.10;12.57;;;24.10;66.10;;;;;;4702566;55;21021;-38
2023/06/16 08:41:37;;;;;;;14.45;12.23;;;24.10;66.10;;;;;;4614826;60;21767;-37
2023/06/16 08:46:38;;;;;;;15.20;12.77;;;24.10;66.20;;;;;;4615338;60;21093;-39
2023/06/16 08:51:41;;;;;;;13.70;12.20;;;24.10;66.10;;;;;;4638866;55;21603;-38
2023/06/16 08:56:45;;;;;;;15.73;13.00;;;24.10;66.10;;;;;;4625100;56;21009;-38
2023/06/16 09:01:47;;;;;;;14.38;12.10;;;24.10;66.10;;;;;;4615196;60;21057;-39
2023/06/16 09:06:48;;;;;;;15.40;13.07;;;24.10;66.10;;;;;;4615038;60;21005;-38
2023/06/16 09:15:22;;;;;;;14.93;13.05;;;24.10;66.20;;;;;;4630645;55;21558;-40
2023/06/16 09:20:23;;;;;;;17.12;13.88;;;24.10;66.20;;;;;;4724833;56;21563;-40
2023/06/16 09:25:24;;;;;;;17.77;13.65;;;24.10;66.20;;;;;;4621888;55;21508;-37
2023/06/16 09:30:30;;;;;;;16.73;13.85;;;24.10;66.80;;;;;;4633566;56;21057;-34
2023/06/16 09:35:33;;;;;;;17.53;14.43;;;24.20;66.20;;;;;;4612977;58;21495;-39
2023/06/16 09:40:34;;;;;;;18.00;15.85;;;24.20;66.30;;;;;;4634954;55;21053;-36
2023/06/16 09:45:35;;;;;;;19.23;15.35;;;24.20;66.30;;;;;;4685095;55;21567;-35
2023/06/16 09:50:37;;;;;;;20.55;15.70;;;24.20;66.20;;;;;;4641507;55;21148;-35
2023/06/16 09:55:40;;;;;;;18.60;16.42;;;24.20;66.30;;;;;;4632636;56;21602;-41
2023/06/16 10:00:40;;;;;;;17.65;15.73;;;24.20;66.20;;;;;;4642813;56;21032;-38
2023/06/16 10:05:46;;;;;;;20.08;16.02;;;24.20;66.20;;;;;;4614330;56;21041;-36
2023/06/16 10:10:51;;;;;;;19.98;15.80;;;24.20;66.20;;;;;;4660869;56;21640;-32
2023/06/16 10:15:53;;;;;;;19.65;16.08;;;24.20;66.10;;;;;;4630287;56;22194;-39
2023/06/16 10:20:54;;;;;;;19.62;16.48;;;24.20;66.20;;;;;;4613761;60;21146;-39
2023/06/16 10:25:55;;;;;;;20.40;16.55;;;24.20;66.20;;;;;;4627892;56;21171;-38
2023/06/16 10:30:56;;;;;;;21.50;17.00;;;24.20;66.20;;;;;;4656008;56;21550;-39
2023/06/16 10:36:01;;;;;;;22.73;17.75;;;24.20;66.20;;;;;;4612629;60;21053;-35
2023/06/16 10:41:03;;;;;;;21.15;16.85;;;24.30;66.10;;;;;;4633767;56;21112;-32
2023/06/16 10:46:14;;;;;;;22.17;18.40;;;24.30;66.20;;;;;;4669258;56;21096;-35
2023/06/16 10:51:44;;;;;;;21.12;17.05;;;24.40;66.50;;;;;;4623255;56;21153;-37
2023/06/16 10:57:05;;;;;;;22.87;17.65;;;24.40;66.50;;;;;;4634675;56;22204;-34
2023/06/16 11:02:52;;;;;;;22.92;18.92;;;24.40;66.60;;;;;;4696251;56;21547;-38
2023/06/16 11:08:27;;;;;;;22.42;18.08;;;24.40;66.60;;;;;;4654319;56;21216;-35
2023/06/16 11:13:35;;;;;;;25.20;20.00;;;24.50;66.80;;;;;;4613041;59;21085;-36
2023/06/16 11:18:36;;;;;;;25.45;20.48;;;24.50;66.90;;;;;;4712933;56;21490;-40
2023/06/16 11:23:37;;;;;;;25.23;19.70;;;24.40;67.10;;;;;;4614419;55;21142;-40
2023/06/16 11:28:41;;;;;;;26.10;20.37;;;24.40;67.30;;;;;;4651364;55;21116;-39
2023/06/16 11:33:42;;;;;;;24.87;20.62;;;24.30;67.30;;;;;;4635313;56;21538;-37
2023/06/16 11:38:44;;;;;;;23.80;19.27;;;24.30;67.30;;;;;;4657126;55;21029;-39
2023/06/16 11:43:47;;;;;;;26.08;21.25;;;24.30;67.40;;;;;;4641620;56;21605;-39
2023/06/16 11:48:48;;;;;;;30.95;22.55;;;24.20;67.40;;;;;;4615031;60;21080;-38
2023/06/16 11:53:50;;;;;;;28.33;22.48;;;24.20;68.00;;;;;;4734049;56;21054;-39
2023/06/16 11:58:52;;;;;;;26.27;21.75;;;24.20;67.40;;;;;;4640428;56;21113;-40
2023/06/16 12:03:56;;;;;;;28.23;22.85;;;24.20;67.40;;;;;;4716610;56;21494;-40
2023/06/16 12:08:56;;;;;;;29.87;22.80;;;24.20;67.40;;;;;;4614990;60;21069;-40
2023/06/16 12:13:57;;;;;;;27.50;22.02;;;24.20;67.40;;;;;;4615564;60;21514;-39
2023/06/16 12:18:59;;;;;;;27.33;22.25;;;24.20;67.40;;;;;;4624320;55;21073;-35
2023/06/16 12:24:02;;;;;;;26.98;21.05;;;24.20;67.40;;;;;;4626997;56;21505;-36
2023/06/16 12:29:12;;;;;;;25.20;20.85;;;24.20;67.40;;;;;;4615357;60;21081;-37
2023/06/16 12:34:37;;;;;;;24.10;20.85;;;24.20;67.40;;;;;;4630833;56;21045;-38
2023/06/16 12:39:41;;;;;;;28.33;22.67;;;24.20;67.40;;;;;;4615407;56;21057;-37
2023/06/16 12:44:55;;;;;;;27.45;23.10;;;24.20;67.40;;;;;;4615773;60;21703;-39
2023/06/16 12:49:57;;;;;;;25.55;20.83;;;24.20;67.40;;;;;;4623326;56;21531;-36
2023/06/16 12:54:59;;;;;;;26.33;22.10;;;24.20;67.40;;;;;;4614671;60;21518;-38
2023/06/16 13:00:00;;;;;;;26.12;22.00;;;24.20;67.40;;;;;;4679887;56;21482;-36
2023/06/16 13:05:01;;;;;;;29.90;22.50;;;24.20;67.40;;;;;;4642332;55;21457;-39
2023/06/16 13:10:02;;;;;;;29.08;23.87;;;24.20;67.40;;;;;;4649992;55;21534;-37
2023/06/16 13:15:05;;;;;;;26.02;22.35;;;24.20;67.40;;;;;;4674964;56;21052;-41
2023/06/16 13:20:09;;;;;;;24.75;21.70;;;24.20;67.50;;;;;;4618790;56;21053;-40
2023/06/16 13:25:10;;;;;;;27.45;23.42;;;24.20;67.50;;;;;;4672692;56;21183;-37
2023/06/16 13:30:11;;;;;;;27.00;22.42;;;24.20;67.40;;;;;;4615709;59;21553;-38
2023/06/16 13:35:12;;;;;;;25.17;22.48;;;24.20;67.50;;;;;;4679607;56;21594;-38
2023/06/16 13:40:13;;;;;;;26.87;22.50;;;24.20;67.50;;;;;;4624833;55;21053;-39
2023/06/16 13:45:14;;;;;;;29.20;22.62;;;24.20;67.50;;;;;;4621424;56;21550;-38
2023/06/16 13:50:15;;;;;;;25.77;22.08;;;24.20;67.40;;;;;;4660745;56;21491;-38
2023/06/16 13:55:16;;;;;;;27.98;23.52;;;24.20;67.40;;;;;;4615340;56;21053;-39
2023/06/16 14:00:18;;;;;;;27.08;22.08;;;24.20;67.40;;;;;;4615135;59;21091;-36
2023/06/16 14:05:19;;;;;;;26.50;23.30;;;24.20;67.50;;;;;;4615388;60;21158;-38
2023/06/16 14:10:20;;;;;;;29.12;24.30;;;24.20;67.50;;;;;;4680370;55;21065;-38
2023/06/16 14:15:20;;;;;;;26.42;22.92;;;24.20;67.40;;;;;;4668213;55;21136;-39
2023/06/16 14:20:21;;;;;;;28.02;23.58;;;24.20;67.50;;;;;;4641792;56;21013;-38
2023/06/16 14:25:22;;;;;;;27.73;24.17;;;24.20;67.60;;;;;;4771842;56;21594;-38
2023/06/16 14:30:26;;;;;;;28.23;24.00;;;24.20;67.50;;;;;;4637297;55;21124;-37
2023/06/16 14:35:27;;;;;;;30.95;25.10;;;24.20;67.60;;;;;;4643433;55;21049;-38
2023/06/16 14:40:28;;;;;;;29.92;25.02;;;24.20;67.50;;;;;;4615253;59;21570;-39
2023/06/16 14:45:29;;;;;;;28.33;24.15;;;24.20;67.50;;;;;;4637624;55;21096;-38
2023/06/16 14:50:29;;;;;;;28.48;23.92;;;24.20;67.60;;;;;;4620431;56;21022;-40
2023/06/16 14:55:30;;;;;;;28.00;23.85;;;24.20;67.50;;;;;;4615683;59;21483;-37
2023/06/16 15:00:31;;;;;;;28.95;23.33;;;24.20;67.50;;;;;;4619536;56;21017;-33
2023/06/16 15:05:32;;;;;;;29.12;24.00;;;24.20;67.60;;;;;;4615754;60;21563;-37
2023/06/16 15:10:36;;;;;;;31.20;25.20;;;24.20;67.60;;;;;;4649816;55;21065;-37
2023/06/16 15:15:36;;;;;;;30.02;23.80;;;24.20;67.50;;;;;;4728747;55;21124;-37
2023/06/16 15:20:37;;;;;;;29.12;23.62;;;24.20;67.50;;;;;;4674881;55;21722;-37
2023/06/16 15:25:38;;;;;;;30.37;23.85;;;24.20;67.60;;;;;;4690240;55;21228;-38
2023/06/16 15:30:40;;;;;;;29.50;24.45;;;24.20;67.50;;;;;;4623270;55;21405;-36
2023/06/16 15:35:41;;;;;;;27.02;22.87;;;24.20;67.50;;;;;;4627998;56;21570;-38
2023/06/16 15:40:42;;;;;;;26.92;23.77;;;24.20;67.50;;;;;;4752421;55;21149;-37
2023/06/16 15:45:43;;;;;;;28.77;24.73;;;24.20;67.60;;;;;;4708014;55;21696;-39
2023/06/16 15:50:44;;;;;;;24.85;21.90;;;24.20;67.60;;;;;;4616017;60;21045;-36
2023/06/16 15:55:45;;;;;;;26.20;22.73;;;24.20;67.60;;;;;;4618877;55;21895;-38
2023/06/16 16:00:46;;;;;;;24.67;22.08;;;24.20;67.50;;;;;;4615467;55;21347;-40
2023/06/16 16:05:47;;;;;;;24.58;21.90;;;24.20;67.60;;;;;;4737841;56;21084;-42
2023/06/16 16:10:47;;;;;;;28.17;23.75;;;24.20;67.60;;;;;;4626876;55;21481;-41
2023/06/16 16:15:48;;;;;;;25.48;21.05;;;24.20;67.60;;;;;;4615521;60;21423;-39
2023/06/16 16:20:49;;;;;;;24.87;21.85;;;24.20;67.60;;;;;;4632813;55;21144;-38
2023/06/16 16:25:50;;;;;;;26.33;22.85;;;24.20;67.60;;;;;;4615483;60;21074;-38
2023/06/16 16:30:51;;;;;;;24.08;20.70;;;24.20;67.60;;;;;;4615622;59;21033;-39
2023/06/16 16:35:52;;;;;;;25.05;22.00;;;24.20;67.70;;;;;;4626904;55;21673;-38
2023/06/16 16:40:53;;;;;;;25.37;22.48;;;24.20;67.70;;;;;;4641863;55;21094;-36
2023/06/16 16:45:54;;;;;;;24.45;21.33;;;24.20;67.70;;;;;;4660625;56;21543;-37
2023/06/16 16:50:55;;;;;;;23.90;21.35;;;24.20;67.70;;;;;;4656970;55;21586;-36
2023/06/16 16:55:56;;;;;;;25.90;21.37;;;24.20;67.70;;;;;;4634665;55;21033;-37
2023/06/16 17:00:57;;;;;;;24.60;22.05;;;24.20;68.30;;;;;;4616028;55;21081;-36
2023/06/16 17:05:58;;;;;;;24.02;21.08;;;24.20;67.60;;;;;;4617487;56;21077;-38
2023/06/16 17:10:59;;;;;;;25.00;22.05;;;24.20;67.70;;;;;;4683551;56;21514;-40
2023/06/16 17:16:00;;;;;;;25.40;20.45;;;24.20;67.70;;;;;;4648204;55;21025;-38
2023/06/16 17:21:01;;;;;;;24.60;21.40;;;24.20;67.70;;;;;;4651018;55;21554;-39
2023/06/16 17:26:02;;;;;;;22.13;18.92;;;24.20;67.70;;;;;;4617302;55;21048;-37
2023/06/16 17:31:03;;;;;;;25.55;20.45;;;24.20;67.70;;;;;;4654085;55;21061;-39
2023/06/16 17:36:05;;;;;;;22.77;20.37;;;24.20;67.70;;;;;;4619471;55;21490;-37
2023/06/16 17:41:06;;;;;;;25.00;21.75;;;24.20;67.70;;;;;;4653921;56;21542;-38
2023/06/16 17:46:07;;;;;;;25.10;22.00;;;24.20;67.70;;;;;;4669498;55;21566;-37
2023/06/16 17:51:08;;;;;;;21.55;18.50;;;24.20;67.60;;;;;;4626439;55;21100;-38
2023/06/16 17:56:09;;;;;;;21.83;19.52;;;24.20;67.70;;;;;;4661630;55;21523;-37
2023/06/16 18:01:10;;;;;;;22.92;20.52;;;24.20;67.70;;;;;;4615963;56;21032;-38
2023/06/16 18:06:11;;;;;;;23.30;20.75;;;24.20;68.40;;;;;;4615325;60;21553;-37
2023/06/16 18:11:12;;;;;;;23.02;20.20;;;24.20;67.80;;;;;;4635265;55;21038;-37
2023/06/16 18:16:12;;;;;;;23.17;20.73;;;24.10;67.70;;;;;;4790575;55;21558;-36
2023/06/16 18:21:15;;;;;;;21.90;19.60;;;24.20;67.70;;;;;;4634755;55;21057;-38
2023/06/16 18:26:16;;;;;;;22.30;19.40;;;24.20;67.70;;;;;;4615462;60;21506;-35
2023/06/16 18:31:19;;;;;;;22.15;19.83;;;24.20;67.60;;;;;;4632900;56;21222;-45
2023/06/16 18:36:21;;;;;;;23.52;20.25;;;24.10;67.70;;;;;;4651248;56;21551;-37
2023/06/16 18:41:21;;;;;;;23.77;21.17;;;24.10;67.70;;;;;;4614978;59;21559;-39
2023/06/16 18:46:22;;;;;;;21.62;19.40;;;24.10;67.70;;;;;;4616195;55;21026;-37
2023/06/16 18:51:23;;;;;;;22.90;19.92;;;24.20;67.80;;;;;;4667105;55;21037;-34
2023/06/16 18:56:26;;;;;;;22.70;19.80;;;24.20;67.90;;;;;;4663599;55;21610;-38
2023/06/16 19:01:27;;;;;;;20.98;18.70;;;24.10;67.80;;;;;;4638694;55;21534;-37
2023/06/16 19:06:28;;;;;;;21.67;19.40;;;24.10;67.90;;;;;;4642887;55;21141;-37
2023/06/16 19:11:29;;;;;;;20.70;18.42;;;24.10;67.90;;;;;;4635007;55;21538;-39
2023/06/16 19:16:31;;;;;;;21.30;19.08;;;24.20;67.90;;;;;;4627416;55;21029;-38
2023/06/16 19:21:32;;;;;;;20.60;18.25;;;24.10;67.80;;;;;;4615494;60;21378;-39
2023/06/16 19:26:33;;;;;;;21.52;19.23;;;24.20;67.90;;;;;;4634452;55;21105;-39
2023/06/16 19:31:34;;;;;;;19.75;17.67;;;24.10;67.90;;;;;;4675406;55;21089;-40
2023/06/16 19:36:36;;;;;;;19.73;17.62;;;24.10;67.90;;;;;;4615694;56;21491;-36
2023/06/16 19:41:36;;;;;;;19.80;17.70;;;24.10;67.90;;;;;;4635261;55;21506;-35
2023/06/16 19:46:37;;;;;;;20.35;18.20;;;24.10;67.90;;;;;;4632560;55;21101;-37
2023/06/16 19:51:38;;;;;;;21.27;18.95;;;24.10;67.90;;;;;;4629502;55;21096;-36
2023/06/16 19:56:39;;;;;;;20.65;18.50;;;24.10;67.90;;;;;;4681788;55;21491;-36
2023/06/16 20:01:40;;;;;;;20.85;18.62;;;24.10;67.90;;;;;;4615712;59;21610;-40
2023/06/16 20:06:41;;;;;;;19.62;17.58;;;24.10;67.90;;;;;;4645942;55;21032;-36
2023/06/16 20:11:42;;;;;;;19.55;17.48;;;24.10;67.90;;;;;;4738744;55;21607;-37
2023/06/16 20:16:43;;;;;;;20.45;18.25;;;24.10;67.90;;;;;;4722061;55;21487;-37
2023/06/16 20:21:43;;;;;;;19.60;17.58;;;24.10;67.90;;;;;;4686081;55;21058;-37
2023/06/16 20:26:45;;;;;;;20.50;18.40;;;24.10;67.90;;;;;;4652236;55;21551;-37
2023/06/16 20:31:48;;;;;;;19.52;17.52;;;24.10;67.90;;;;;;4671056;55;21985;-36
2023/06/16 20:36:49;;;;;;;19.25;16.77;;;24.10;68.50;;;;;;4734568;55;21053;-35
2023/06/16 20:41:52;;;;;;;20.08;17.98;;;24.10;67.90;;;;;;4648039;56;21559;-39
2023/06/16 20:46:53;;;;;;;19.17;17.10;;;24.10;67.90;;;;;;4621070;55;21567;-35
2023/06/16 20:51:54;;;;;;;20.45;18.35;;;24.10;68.00;;;;;;4680411;55;21571;-36
2023/06/16 20:56:56;;;;;;;19.45;17.40;;;24.10;67.90;;;;;;4653281;55;21116;-38
2023/06/16 21:01:57;;;;;;;19.17;17.05;;;24.10;67.90;;;;;;4615447;59;21526;-37
2023/06/16 21:07:02;;;;;;;19.33;17.23;;;24.10;67.90;;;;;;4636507;55;21497;-38
2023/06/16 21:12:04;;;;;;;19.37;17.37;;;24.10;67.90;;;;;;4661017;55;21499;-36
2023/06/16 21:17:05;;;;;;;20.12;18.12;;;24.10;67.90;;;;;;4686251;56;21503;-38
2023/06/16 21:22:07;;;;;;;19.27;17.23;;;24.10;67.90;;;;;;4645952;55;21080;-37
2023/06/16 21:27:09;;;;;;;20.17;18.08;;;24.10;67.90;;;;;;4615802;59;21495;-36
2023/06/16 21:32:10;;;;;;;18.37;16.42;;;24.10;67.90;;;;;;4741203;56;21033;-36
2023/06/16 21:37:12;;;;;;;19.08;17.08;;;24.10;67.90;;;;;;4799979;55;21089;-34
2023/06/16 21:42:13;;;;;;;19.65;17.60;;;24.10;68.00;;;;;;4924077;55;21650;-37
2023/06/16 21:47:14;;;;;;;19.33;17.37;;;24.10;67.90;;;;;;4730574;55;21013;-34
2023/06/16 21:52:15;;;;;;;20.02;17.87;;;24.10;67.90;;;;;;4681930;56;21366;-38
2023/06/16 21:57:16;;;;;;;20.50;18.37;;;24.10;67.90;;;;;;4638851;55;21369;-37
2023/06/16 22:02:17;;;;;;;19.85;17.85;;;24.10;67.90;;;;;;4654572;55;21020;-37
2023/06/16 22:07:18;;;;;;;20.10;18.05;;;24.10;67.90;;;;;;4637625;56;21029;-38
2023/06/16 22:12:20;;;;;;;18.27;16.37;;;24.00;67.90;;;;;;4645774;55;21562;-39
2023/06/16 22:17:21;;;;;;;18.30;16.45;;;24.00;67.90;;;;;;4678809;55;21559;-38
2023/06/16 22:22:22;;;;;;;19.62;17.62;;;24.00;67.90;;;;;;4787831;55;21098;-35
2023/06/16 22:27:23;;;;;;;19.30;17.30;;;24.00;67.90;;;;;;4768352;55;21092;-38
2023/06/16 22:32:24;;;;;;;18.98;17.02;;;24.00;67.90;;;;;;4657351;55;21096;-37
2023/06/16 22:37:24;;;;;;;19.77;17.55;;;24.00;67.90;;;;;;4645491;55;21710;-37
2023/06/16 22:42:25;;;;;;;18.35;16.37;;;24.00;67.90;;;;;;4709241;55;21132;-37
2023/06/16 22:47:26;;;;;;;18.85;16.90;;;24.00;67.90;;;;;;4670484;56;21025;-35
2023/06/16 22:52:27;;;;;;;18.60;16.42;;;24.10;67.90;;;;;;4615268;60;21085;-39
2023/06/16 22:57:28;;;;;;;18.35;16.55;;;24.00;67.90;;;;;;4646054;55;21101;-39
2023/06/16 23:02:29;;;;;;;18.85;16.90;;;24.00;67.90;;;;;;4774014;55;21017;-37
2023/06/16 23:07:30;;;;;;;17.65;15.52;;;24.00;67.90;;;;;;4616279;59;21454;-33
2023/06/16 23:12:31;;;;;;;17.50;15.70;;;24.10;68.00;;;;;;4684682;55;21366;-35
2023/06/16 23:17:32;;;;;;;17.80;15.98;;;24.00;67.90;;;;;;4615709;60;21009;-36
2023/06/16 23:22:33;;;;;;;18.67;16.00;;;24.00;67.90;;;;;;4645238;55;21100;-36
2023/06/16 23:27:37;;;;;;;17.42;15.73;;;24.00;67.90;;;;;;4796948;55;21409;-37
2023/06/16 23:32:38;;;;;;;18.25;16.10;;;24.00;68.60;;;;;;4655881;55;21587;-40
2023/06/16 23:37:39;;;;;;;17.65;15.85;;;24.00;68.00;;;;;;4675090;55;21100;-38
2023/06/16 23:42:40;;;;;;;17.00;15.30;;;24.00;68.00;;;;;;4614604;60;21367;-39
2023/06/16 23:47:43;;;;;;;19.15;16.90;;;24.00;68.00;;;;;;4631824;55;21522;-37
2023/06/16 23:52:44;;;;;;;17.55;15.75;;;24.00;67.90;;;;;;4627178;56;21081;-33
2023/06/16 23:57:45;;;;;;;17.87;15.95;;;24.00;68.00;;;;;;4616235;59;21582;-38
